Time;durP1;ratioP1;P1;durP2;ratioP2;P2;SDS_P1;SDS_P2;PMS_P1;PMS_P2;Temp;Humidity;BMP_temperature;BMP_pressure;BME280_temperature;BME280_humidity;BME280_pressure;Samples;Min_cycle;Max_cycle;Signal;HPM_P1;HPM_P2
2023/02/21 02:16:30;;;;;;;11.75;5.65;;;7.50;99.90;;;;;;4955795;28;20043;-49
2023/02/21 02:19:20;;;;;;;14.93;7.13;;;7.50;99.90;;;;;;4956536;28;20114;-49
2023/02/21 02:22:03;;;;;;;10.35;6.38;;;7.40;99.90;;;;;;4956686;28;20042;-50
2023/02/21 02:24:43;;;;;;;19.73;6.90;;;7.40;99.90;;;;;;4955211;28;20380;-49
2023/02/21 02:27:45;;;;;;;12.68;6.25;;;7.30;99.90;;;;;;4956130;28;20034;-51
2023/02/21 02:30:54;;;;;;;7.82;6.10;;;7.20;99.90;;;;;;4956077;28;20432;-50
2023/02/21 02:33:47;;;;;;;9.88;7.07;;;7.20;99.90;;;;;;4955969;28;20027;-50
2023/02/21 02:36:24;;;;;;;11.90;6.50;;;7.20;99.90;;;;;;4956027;28;20640;-51
2023/02/21 02:39:20;;;;;;;7.53;5.85;;;7.10;99.90;;;;;;4956057;28;20023;-49
2023/02/21 02:42:15;;;;;;;12.57;6.80;;;7.20;99.90;;;;;;4955991;28;20212;-49
2023/02/21 02:44:52;;;;;;;14.05;7.00;;;7.30;99.90;;;;;;4955899;28;20027;-52
2023/02/21 02:47:24;;;;;;;12.20;6.15;;;7.20;99.90;;;;;;4955545;28;20038;-54
2023/02/21 02:49:51;;;;;;;18.10;8.07;;;7.30;99.90;;;;;;4954587;28;20023;-52
2023/02/21 02:52:17;;;;;;;18.85;7.82;;;7.30;99.90;;;;;;4955374;28;20027;-51
2023/02/21 02:54:42;;;;;;;11.90;6.72;;;7.30;99.90;;;;;;4954488;28;20166;-50
2023/02/21 02:57:11;;;;;;;13.00;6.85;;;7.20;99.90;;;;;;4955934;28;20102;-49
2023/02/21 02:59:44;;;;;;;10.50;7.25;;;7.20;99.90;;;;;;4956001;28;20055;-49
2023/02/21 03:02:53;;;;;;;16.33;7.75;;;7.10;99.90;;;;;;4956480;28;20023;-50
2023/02/21 03:05:34;;;;;;;15.57;8.35;;;7.20;99.90;;;;;;4956576;28;20372;-49
2023/02/21 03:08:24;;;;;;;16.63;7.40;;;7.20;99.90;;;;;;4955604;28;20034;-54
2023/02/21 03:11:08;;;;;;;16.42;8.18;;;7.20;99.90;;;;;;4955455;28;20488;-50
2023/02/21 03:13:44;;;;;;;15.07;7.72;;;7.10;99.90;;;;;;4954717;28;20029;-49
2023/02/21 03:16:19;;;;;;;19.05;7.82;;;7.10;99.90;;;;;;4953106;28;20499;-52
2023/02/21 03:19:01;;;;;;;14.17;8.00;;;7.10;99.90;;;;;;4953980;28;20032;-55
2023/02/21 03:21:44;;;;;;;16.38;7.90;;;7.10;99.90;;;;;;4955877;28;20398;-52
2023/02/21 03:24:12;;;;;;;17.48;8.82;;;7.10;99.90;;;;;;4954773;29;20102;-49
2023/02/21 03:26:40;;;;;;;18.35;9.23;;;7.00;99.90;;;;;;4954674;28;20082;-51
2023/02/21 03:29:06;;;;;;;14.18;6.57;;;7.00;99.90;;;;;;4955136;28;20054;-50
2023/02/21 03:31:38;;;;;;;10.18;6.05;;;7.00;99.90;;;;;;4953856;28;20062;-50
2023/02/21 03:34:04;;;;;;;9.00;6.15;;;6.80;99.90;;;;;;4954997;28;20059;-52
2023/02/21 03:36:30;;;;;;;11.40;7.57;;;6.70;99.90;;;;;;4954829;28;20066;-50
2023/02/21 03:38:56;;;;;;;14.40;7.55;;;6.50;99.90;;;;;;4954716;28;20086;-50
2023/02/21 03:41:22;;;;;;;13.82;7.05;;;6.50;99.90;;;;;;4954832;28;20427;-48
2023/02/21 03:43:47;;;;;;;12.40;7.05;;;6.50;99.90;;;;;;4954710;28;20035;-54
2023/02/21 03:46:12;;;;;;;9.88;6.82;;;6.40;99.90;;;;;;4954441;28;20042;-53
2023/02/21 03:48:38;;;;;;;14.88;7.18;;;6.30;99.90;;;;;;4954604;28;20039;-49
2023/02/21 03:51:04;;;;;;;15.32;7.40;;;6.10;99.90;;;;;;4954602;28;20078;-52
2023/02/21 03:53:29;;;;;;;16.02;6.80;;;6.20;99.90;;;;;;4953265;28;20074;-54
2023/02/21 03:55:55;;;;;;;11.85;8.05;;;6.10;99.90;;;;;;4954183;28;20442;-52
2023/02/21 03:58:20;;;;;;;17.88;8.60;;;6.30;99.90;;;;;;4954283;28;20027;-51
2023/02/21 04:00:46;;;;;;;12.30;6.88;;;6.30;99.90;;;;;;4954323;28;20027;-52
2023/02/21 04:03:12;;;;;;;17.33;8.43;;;6.30;99.90;;;;;;4954624;28;20064;-54
2023/02/21 04:05:37;;;;;;;14.70;8.07;;;6.40;99.90;;;;;;4953958;28;20099;-51
2023/02/21 04:08:03;;;;;;;14.38;8.82;;;6.40;99.90;;;;;;4953959;28;20527;-51
2023/02/21 04:10:28;;;;;;;20.25;7.80;;;6.50;99.90;;;;;;4954083;28;20024;-51
2023/02/21 04:12:54;;;;;;;15.02;7.53;;;6.50;99.90;;;;;;4954091;28;20023;-52
2023/02/21 04:15:19;;;;;;;13.50;8.50;;;6.50;99.90;;;;;;4953884;28;20031;-53
2023/02/21 04:17:45;;;;;;;17.60;8.38;;;6.40;99.90;;;;;;4953971;28;20398;-52
2023/02/21 04:20:10;;;;;;;15.20;7.75;;;6.40;99.90;;;;;;4954070;28;20601;-53
2023/02/21 04:22:36;;;;;;;12.57;7.60;;;6.40;99.90;;;;;;4953598;28;20027;-50
2023/02/21 04:25:01;;;;;;;13.20;8.25;;;6.50;99.90;;;;;;4953901;28;20038;-52
2023/02/21 04:27:27;;;;;;;11.50;7.93;;;6.50;99.90;;;;;;4952731;28;20031;-53
2023/02/21 04:29:52;;;;;;;16.02;7.75;;;6.50;99.90;;;;;;4953768;28;20031;-52
2023/02/21 04:32:18;;;;;;;14.02;8.15;;;6.50;99.90;;;;;;4952031;28;20254;-53
2023/02/21 04:34:43;;;;;;;16.17;8.38;;;6.50;99.90;;;;;;4953643;28;20114;-51
2023/02/21 04:37:09;;;;;;;17.90;8.63;;;6.50;99.90;;;;;;4953597;28;20476;-54
2023/02/21 04:39:34;;;;;;;17.50;8.18;;;6.40;99.90;;;;;;4953615;28;20392;-49
2023/02/21 04:42:00;;;;;;;14.88;8.73;;;6.40;99.90;;;;;;4953824;28;20019;-49
2023/02/21 04:44:25;;;;;;;18.90;9.48;;;6.40;99.90;;;;;;4953416;28;20035;-50
2023/02/21 04:46:51;;;;;;;19.60;9.02;;;6.30;99.90;;;;;;4953226;28;20023;-49
2023/02/21 04:49:17;;;;;;;19.67;9.35;;;6.30;99.90;;;;;;4953425;28;20031;-48
2023/02/21 04:51:43;;;;;;;19.45;9.65;;;6.30;99.90;;;;;;4952187;28;20533;-50
2023/02/21 04:54:08;;;;;;;15.57;9.98;;;6.20;99.90;;;;;;4953502;28;20106;-52
2023/02/21 04:56:34;;;;;;;12.93;10.05;;;6.20;99.90;;;;;;4953310;28;20023;-49
2023/02/21 04:58:59;;;;;;;20.27;10.38;;;6.30;99.90;;;;;;4953394;28;20445;-51
2023/02/21 05:01:29;;;;;;;18.42;10.00;;;6.20;99.90;;;;;;4953215;28;20028;-49
2023/02/21 05:03:56;;;;;;;20.65;9.63;;;6.10;99.90;;;;;;4952979;28;20045;-50
2023/02/21 05:06:24;;;;;;;17.60;10.63;;;6.30;99.90;;;;;;4952894;28;20093;-49
2023/02/21 05:08:49;;;;;;;16.90;9.73;;;6.20;99.90;;;;;;4953003;28;20058;-51
2023/02/21 05:11:16;;;;;;;18.20;9.90;;;6.20;99.90;;;;;;4953265;28;20027;-51
2023/02/21 05:13:42;;;;;;;17.83;9.32;;;6.20;99.90;;;;;;4953059;28;20118;-52
2023/02/21 05:16:08;;;;;;;16.65;10.07;;;6.10;99.90;;;;;;4953141;28;20115;-52
2023/02/21 05:18:33;;;;;;;17.58;9.52;;;6.10;99.90;;;;;;4953399;28;20035;-49
2023/02/21 05:20:59;;;;;;;12.45;8.88;;;6.10;99.90;;;;;;4953343;28;20032;-52
2023/02/21 05:23:34;;;;;;;20.35;9.18;;;6.10;99.90;;;;;;4953080;28;20042;-54
2023/02/21 05:26:09;;;;;;;19.10;10.25;;;6.10;99.90;;;;;;4953146;28;20479;-49
2023/02/21 05:28:35;;;;;;;16.50;9.83;;;6.10;99.90;;;;;;4951586;28;20518;-53
2023/02/21 05:31:01;;;;;;;16.52;9.18;;;6.00;99.90;;;;;;4952996;28;20035;-51
2023/02/21 05:33:27;;;;;;;20.77;10.32;;;6.00;99.90;;;;;;4953035;28;20078;-52
2023/02/21 05:35:53;;;;;;;15.07;10.18;;;5.90;99.90;;;;;;4951509;28;20028;-52
2023/02/21 05:38:21;;;;;;;15.73;9.52;;;5.90;99.90;;;;;;4954104;28;20035;-50
2023/02/21 05:40:46;;;;;;;22.05;9.95;;;5.80;99.90;;;;;;4956949;28;20023;-49
2023/02/21 05:43:12;;;;;;;18.58;11.32;;;5.80;99.90;;;;;;4956797;28;20396;-51
2023/02/21 05:45:37;;;;;;;19.13;10.32;;;5.70;99.90;;;;;;4956400;28;20119;-50
2023/02/21 05:48:03;;;;;;;16.08;10.25;;;5.70;99.90;;;;;;4956664;28;20066;-49
2023/02/21 05:50:28;;;;;;;23.27;10.07;;;5.70;99.90;;;;;;4956652;28;20030;-54
2023/02/21 05:52:55;;;;;;;14.70;10.10;;;5.70;99.90;;;;;;4956718;28;20074;-52
2023/02/21 05:55:21;;;;;;;15.48;9.68;;;5.70;99.90;;;;;;4956413;28;20053;-51
2023/02/21 05:57:46;;;;;;;14.40;9.10;;;5.70;99.90;;;;;;4956507;28;20459;-55
2023/02/21 06:00:15;;;;;;;18.48;11.23;;;5.70;99.90;;;;;;4955215;28;20050;-55
2023/02/21 06:02:41;;;;;;;14.80;10.85;;;5.70;99.90;;;;;;4956279;28;20132;-51
2023/02/21 06:05:07;;;;;;;22.63;10.55;;;5.70;99.90;;;;;;4956256;28;20039;-52
2023/02/21 06:07:32;;;;;;;12.88;9.73;;;5.70;99.90;;;;;;4956380;28;20097;-54
2023/02/21 06:09:57;;;;;;;19.63;9.32;;;5.70;99.90;;;;;;4956588;28;20589;-54
2023/02/21 06:12:23;;;;;;;13.50;9.30;;;5.70;99.90;;;;;;4956638;28;20058;-54
2023/02/21 06:14:48;;;;;;;18.50;9.27;;;5.60;99.90;;;;;;4956285;28;20430;-55
2023/02/21 06:17:14;;;;;;;13.00;8.77;;;5.60;99.90;;;;;;4956406;28;20067;-50
2023/02/21 06:19:39;;;;;;;13.00;8.73;;;5.60;99.90;;;;;;4956316;28;20458;-54
2023/02/21 06:22:05;;;;;;;12.57;8.30;;;5.60;99.90;;;;;;4955723;28;20074;-51
2023/02/21 06:24:30;;;;;;;13.85;9.63;;;5.50;99.90;;;;;;4956031;28;20542;-52
2023/02/21 06:26:56;;;;;;;19.02;11.10;;;5.50;99.90;;;;;;4956429;28;20067;-57
2023/02/21 06:29:21;;;;;;;15.38;9.60;;;5.50;99.90;;;;;;4957493;28;20039;-50
2023/02/21 06:31:47;;;;;;;21.00;9.30;;;5.60;99.90;;;;;;4956248;28;20466;-46
2023/02/21 06:34:13;;;;;;;21.00;10.63;;;5.50;99.90;;;;;;4955660;28;20027;-49
2023/02/21 06:36:38;;;;;;;12.40;8.60;;;5.40;99.90;;;;;;4955993;28;20034;-51
2023/02/21 06:39:04;;;;;;;16.52;9.27;;;5.30;99.90;;;;;;4955911;28;20446;-50
2023/02/21 06:41:30;;;;;;;17.60;9.23;;;5.20;99.90;;;;;;4955809;28;20035;-53
2023/02/21 06:43:57;;;;;;;15.13;10.07;;;5.30;99.90;;;;;;4954432;29;20194;-53
2023/02/21 06:46:25;;;;;;;15.95;9.10;;;5.40;99.90;;;;;;4955658;28;20028;-50
2023/02/21 06:48:51;;;;;;;17.73;10.57;;;5.60;99.90;;;;;;4955037;28;20065;-51
2023/02/21 06:51:17;;;;;;;15.30;8.73;;;5.80;99.90;;;;;;4955706;28;20452;-51
2023/02/21 06:53:44;;;;;;;16.33;9.35;;;6.10;99.90;;;;;;4955479;28;20423;-51
2023/02/21 06:56:09;;;;;;;18.13;8.82;;;6.50;99.90;;;;;;4955329;28;20138;-51
2023/02/21 06:58:35;;;;;;;15.15;7.78;;;7.00;99.90;;;;;;4955435;28;20110;-53
2023/02/21 07:01:01;;;;;;;15.30;8.45;;;7.50;99.90;;;;;;4955659;28;20031;-50
2023/02/21 07:03:27;;;;;;;12.02;8.63;;;8.00;99.90;;;;;;4955371;28;20038;-52
2023/02/21 07:05:53;;;;;;;12.00;8.75;;;8.40;99.90;;;;;;4954991;28;20043;-53
2023/02/21 07:08:19;;;;;;;13.10;8.88;;;8.70;99.90;;;;;;4955364;28;20110;-56
2023/02/21 07:10:44;;;;;;;14.02;8.10;;;8.90;99.90;;;;;;4955207;28;20098;-51
2023/02/21 07:13:09;;;;;;;20.33;9.55;;;9.40;99.90;;;;;;4954915;28;20031;-54
2023/02/21 07:15:35;;;;;;;14.75;9.63;;;9.70;99.90;;;;;;4954774;28;20075;-50
2023/02/21 07:18:01;;;;;;;14.48;9.93;;;9.60;99.90;;;;;;4955312;28;20046;-52
2023/02/21 07:20:26;;;;;;;20.00;9.77;;;9.60;99.90;;;;;;4954854;28;20023;-54
2023/02/21 07:22:52;;;;;;;14.93;9.60;;;9.50;99.90;;;;;;4954716;28;20106;-55
2023/02/21 07:25:20;;;;;;;18.35;8.88;;;9.60;99.90;;;;;;4955113;28;20440;-56
2023/02/21 07:27:47;;;;;;;18.65;9.55;;;9.90;99.90;;;;;;4955105;28;20055;-53
2023/02/21 07:30:14;;;;;;;11.98;9.20;;;10.20;99.90;;;;;;4954967;28;20048;-52
2023/02/21 07:32:39;;;;;;;11.93;7.93;;;10.70;99.90;;;;;;4955128;28;20110;-57
2023/02/21 07:35:05;;;;;;;14.38;8.65;;;11.00;99.90;;;;;;4955145;28;20492;-54
2023/02/21 07:37:31;;;;;;;16.52;8.88;;;10.90;99.90;;;;;;4954907;28;20082;-51
2023/02/21 07:39:56;;;;;;;16.13;8.75;;;10.50;99.90;;;;;;4953725;28;20403;-54
2023/02/21 07:42:22;;;;;;;14.93;8.40;;;10.10;99.90;;;;;;4954959;28;20031;-54
2023/02/21 07:44:47;;;;;;;16.10;8.90;;;9.60;99.90;;;;;;4955515;28;20023;-50
2023/02/21 07:47:13;;;;;;;13.40;8.70;;;9.10;99.90;;;;;;4954783;28;20035;-51
2023/02/21 07:49:39;;;;;;;14.07;9.10;;;8.80;99.90;;;;;;4954772;28;20019;-53
2023/02/21 07:52:06;;;;;;;14.30;8.77;;;8.50;99.90;;;;;;4954694;28;20074;-55
2023/02/21 07:54:31;;;;;;;17.65;10.05;;;8.30;99.90;;;;;;4954343;28;20538;-55
2023/02/21 07:56:57;;;;;;;12.52;9.02;;;8.10;99.90;;;;;;4954506;28;20035;-53
2023/02/21 07:59:23;;;;;;;14.48;9.35;;;7.90;99.90;;;;;;4954433;28;20051;-52
2023/02/21 08:01:48;;;;;;;24.25;10.30;;;7.90;99.90;;;;;;4953933;28;20042;-54
2023/02/21 08:04:14;;;;;;;17.63;10.38;;;7.90;99.90;;;;;;4954435;28;20598;-52
2023/02/21 08:06:40;;;;;;;18.98;10.30;;;7.90;99.90;;;;;;4954161;28;20078;-53
2023/02/21 08:09:05;;;;;;;22.67;9.98;;;7.90;99.90;;;;;;4954096;28;20450;-54
2023/02/21 08:11:32;;;;;;;20.15;9.50;;;8.00;99.90;;;;;;4954394;28;20036;-57
2023/02/21 08:13:58;;;;;;;18.05;10.63;;;8.00;99.90;;;;;;4954416;28;20016;-54
2023/02/21 08:16:24;;;;;;;15.30;9.65;;;8.00;99.90;;;;;;4954293;28;20070;-51
2023/02/21 08:18:49;;;;;;;16.25;9.90;;;8.00;99.90;;;;;;4954394;28;20483;-50
2023/02/21 08:21:15;;;;;;;19.13;10.30;;;8.00;99.90;;;;;;4954263;28;20039;-53
2023/02/21 08:23:41;;;;;;;16.00;9.85;;;8.10;99.90;;;;;;4953916;28;20427;-56
2023/02/21 08:26:06;;;;;;;17.55;10.57;;;8.10;99.90;;;;;;4953856;28;20108;-51
2023/02/21 08:28:32;;;;;;;19.38;11.13;;;8.20;99.90;;;;;;4952546;28;20039;-51
2023/02/21 08:30:58;;;;;;;24.25;11.82;;;8.20;99.90;;;;;;4954265;28;20082;-52
2023/02/21 08:33:23;;;;;;;27.25;10.77;;;8.10;99.90;;;;;;4954124;28;20552;-53
2023/02/21 08:35:49;;;;;;;23.45;11.88;;;8.10;99.90;;;;;;4954002;28;20458;-53
2023/02/21 08:38:16;;;;;;;18.30;11.25;;;8.10;99.90;;;;;;4953949;28;20051;-55
2023/02/21 08:40:42;;;;;;;18.30;10.10;;;8.10;99.90;;;;;;4953882;28;20023;-54
2023/02/21 08:43:07;;;;;;;18.23;11.63;;;8.10;99.90;;;;;;4952484;28;20034;-52
2023/02/21 08:45:33;;;;;;;21.27;11.65;;;8.30;99.90;;;;;;4953601;28;20384;-50
2023/02/21 08:47:58;;;;;;;15.95;11.38;;;8.30;99.90;;;;;;4953324;28;20027;-54
2023/02/21 08:50:26;;;;;;;17.67;10.93;;;8.40;99.90;;;;;;4953691;28;20023;-55
2023/02/21 08:52:52;;;;;;;19.55;10.98;;;8.40;99.90;;;;;;4953573;28;20015;-50
2023/02/21 08:55:19;;;;;;;19.73;12.35;;;8.50;99.90;;;;;;4954012;28;20031;-52
2023/02/21 08:57:50;;;;;;;17.00;11.07;;;8.50;99.90;;;;;;4953508;28;20058;-51
2023/02/21 09:00:17;;;;;;;20.02;12.27;;;8.50;99.90;;;;;;4953639;28;20078;-51
2023/02/21 09:02:43;;;;;;;20.10;11.35;;;8.60;99.90;;;;;;4953756;28;20488;-54
2023/02/21 09:05:15;;;;;;;24.95;12.93;;;8.70;99.90;;;;;;4953518;28;20101;-51
2023/02/21 09:07:41;;;;;;;23.40;11.57;;;8.60;99.90;;;;;;4952200;28;20027;-52
2023/02/21 09:10:09;;;;;;;22.33;11.85;;;8.60;99.90;;;;;;4953765;28;20023;-51
2023/02/21 09:12:36;;;;;;;19.63;11.25;;;8.70;99.90;;;;;;4952326;28;20085;-52
2023/02/21 09:15:02;;;;;;;17.73;11.77;;;8.70;99.90;;;;;;4953811;28;20043;-51
2023/02/21 09:17:32;;;;;;;22.50;14.07;;;8.80;99.90;;;;;;4952646;28;20562;-50
2023/02/21 09:20:03;;;;;;;21.48;12.05;;;8.90;99.90;;;;;;4953907;28;20062;-49
2023/02/21 09:22:30;;;;;;;25.88;12.85;;;9.00;99.90;;;;;;4954811;28;20047;-50
2023/02/21 09:24:56;;;;;;;19.02;11.60;;;9.00;99.90;;;;;;4959311;28;20031;-55
2023/02/21 09:27:35;;;;;;;19.02;11.65;;;9.10;99.90;;;;;;4972670;28;20494;-54
2023/02/21 09:30:05;;;;;;;16.67;10.73;;;9.60;99.90;;;;;;4934531;29;20034;-54
2023/02/21 09:32:30;;;;;;;16.92;9.60;;;10.80;99.90;;;;;;4953952;28;20031;-56
2023/02/21 09:34:56;;;;;;;15.27;9.70;;;12.00;99.90;;;;;;4972642;28;20023;-56
2023/02/21 09:37:22;;;;;;;18.23;10.73;;;13.20;99.90;;;;;;4962998;28;20027;-58
2023/02/21 09:39:47;;;;;;;13.20;8.85;;;14.40;99.90;;;;;;4952258;28;20368;-56
2023/02/21 09:42:17;;;;;;;14.57;9.15;;;15.60;99.90;;;;;;4953369;28;20040;-56
2023/02/21 09:44:44;;;;;;;15.68;9.18;;;16.70;99.90;;;;;;4952573;28;20032;-59
2023/02/21 09:47:18;;;;;;;18.05;9.32;;;17.60;99.50;;;;;;4955740;28;20106;-57
2023/02/21 09:49:44;;;;;;;11.70;8.27;;;18.20;98.10;;;;;;4972852;28;20427;-58
2023/02/21 09:52:30;;;;;;;13.50;8.43;;;18.40;96.90;;;;;;4969391;28;20046;-57
2023/02/21 09:54:58;;;;;;;11.95;8.32;;;18.40;97.00;;;;;;4972652;28;20031;-56
2023/02/21 09:57:24;;;;;;;13.73;9.00;;;17.80;97.30;;;;;;4972405;28;20035;-55
2023/02/21 09:59:49;;;;;;;15.95;8.90;;;17.60;97.70;;;;;;4972104;28;20499;-51
2023/02/21 10:02:39;;;;;;;10.77;9.23;;;17.40;98.30;;;;;;4972315;28;20033;-59
2023/02/21 10:05:29;;;;;;;10.25;7.78;;;17.50;98.20;;;;;;4972318;28;20027;-52
2023/02/21 10:08:08;;;;;;;19.33;8.98;;;17.70;97.80;;;;;;4934199;29;20066;-51
2023/02/21 10:10:43;;;;;;;12.30;8.55;;;18.20;97.40;;;;;;4934193;29;20103;-53
2023/02/21 10:14:01;;;;;;;25.38;9.45;;;18.80;96.80;;;;;;4934137;29;20491;-53
2023/02/21 10:16:38;;;;;;;13.25;9.48;;;19.10;95.40;;;;;;4914163;29;20055;-52
2023/02/21 10:19:10;;;;;;;17.13;9.40;;;19.30;94.90;;;;;;4947323;28;20035;-50
2023/02/21 10:21:43;;;;;;;12.57;9.23;;;18.90;95.00;;;;;;4969849;28;20086;-54
2023/02/21 10:24:15;;;;;;;14.75;10.00;;;18.50;95.30;;;;;;4968022;28;20486;-51
2023/02/21 10:26:47;;;;;;;12.25;9.52;;;18.10;96.50;;;;;;4956460;29;20027;-55
2023/02/21 10:29:24;;;;;;;14.30;9.85;;;17.70;96.60;;;;;;4956277;28;20027;-54
2023/02/21 10:31:58;;;;;;;14.50;9.93;;;17.30;97.50;;;;;;4955450;28;20029;-54
2023/02/21 10:34:29;;;;;;;13.85;10.43;;;17.00;98.10;;;;;;4974769;28;20023;-50
2023/02/21 10:37:03;;;;;;;15.95;10.00;;;16.90;98.90;;;;;;4969140;28;20529;-52
2023/02/21 10:39:50;;;;;;;14.73;11.23;;;16.90;98.70;;;;;;4956300;29;20031;-50
2023/02/21 10:42:38;;;;;;;16.55;10.32;;;16.90;98.60;;;;;;4956391;28;20042;-51
2023/02/21 10:45:04;;;;;;;16.60;10.25;;;16.50;98.70;;;;;;4936983;29;20039;-50
2023/02/21 10:47:48;;;;;;;21.05;10.98;;;16.20;99.30;;;;;;4953892;28;20059;-50
2023/02/21 10:50:13;;;;;;;15.38;10.93;;;16.10;99.80;;;;;;4954570;28;20038;-51
2023/02/21 10:52:50;;;;;;;17.48;11.10;;;16.20;99.50;;;;;;4955313;28;20035;-58
2023/02/21 10:55:21;;;;;;;13.80;10.73;;;16.10;99.70;;;;;;4954507;29;20089;-55
2023/02/21 10:57:53;;;;;;;14.25;9.93;;;16.00;99.90;;;;;;4955046;28;20418;-51
2023/02/21 11:00:33;;;;;;;19.38;10.80;;;16.10;99.90;;;;;;4953000;28;20031;-51
2023/02/21 11:03:20;;;;;;;21.80;12.18;;;16.10;99.90;;;;;;4973891;28;20027;-50
2023/02/21 11:05:58;;;;;;;13.63;10.50;;;15.90;99.80;;;;;;4942319;28;20098;-52
2023/02/21 11:08:38;;;;;;;18.60;12.40;;;15.70;99.90;;;;;;4955751;28;20036;-53
2023/02/21 11:11:04;;;;;;;15.07;10.30;;;15.50;99.90;;;;;;4954087;28;20027;-50
2023/02/21 11:13:31;;;;;;;21.75;12.20;;;15.30;99.90;;;;;;4963287;28;20499;-54
2023/02/21 11:16:10;;;;;;;16.17;12.07;;;15.10;99.90;;;;;;4954447;28;20030;-54
2023/02/21 11:18:35;;;;;;;17.88;11.88;;;15.00;99.90;;;;;;4955236;28;20121;-56
2023/02/21 11:21:14;;;;;;;16.27;11.45;;;15.00;99.90;;;;;;4953255;28;20024;-53
2023/02/21 11:24:03;;;;;;;22.05;12.48;;;14.90;99.90;;;;;;4953607;28;20020;-50
2023/02/21 11:26:34;;;;;;;21.58;12.48;;;14.80;99.90;;;;;;4954834;28;20388;-51
2023/02/21 11:29:09;;;;;;;17.75;12.25;;;14.70;99.90;;;;;;4954646;28;20115;-55
2023/02/21 11:31:34;;;;;;;21.45;12.52;;;14.50;99.90;;;;;;4955016;28;20020;-55
2023/02/21 11:34:04;;;;;;;18.98;13.38;;;14.20;99.90;;;;;;4953041;28;20034;-51
2023/02/21 11:36:33;;;;;;;17.92;11.68;;;14.10;99.90;;;;;;4953815;28;20023;-53
2023/02/21 11:39:05;;;;;;;19.40;12.27;;;14.10;99.90;;;;;;4954337;28;20046;-57
2023/02/21 11:41:45;;;;;;;17.08;12.55;;;14.10;99.90;;;;;;4954345;28;20035;-54
2023/02/21 11:44:22;;;;;;;17.30;12.75;;;13.90;99.90;;;;;;4954096;28;20082;-57
2023/02/21 11:46:52;;;;;;;17.63;12.05;;;13.80;99.90;;;;;;4954806;28;20082;-57
2023/02/21 11:49:21;;;;;;;15.65;12.10;;;13.70;99.90;;;;;;4955435;28;20122;-54
2023/02/21 11:52:09;;;;;;;20.83;12.80;;;13.70;99.90;;;;;;4954681;28;20059;-54
2023/02/21 11:54:37;;;;;;;17.33;11.43;;;13.80;99.90;;;;;;4953986;28;20059;-52
2023/02/21 11:57:14;;;;;;;17.48;11.88;;;13.70;99.90;;;;;;4954238;28;20039;-49
2023/02/21 12:00:24;;;;;;;18.25;11.95;;;13.70;99.90;;;;;;4954535;28;20038;-52
2023/02/21 12:03:04;;;;;;;17.30;10.77;;;13.70;99.90;;;;;;4943866;29;20043;-55
2023/02/21 12:05:41;;;;;;;18.70;11.80;;;13.70;99.90;;;;;;4952875;28;20122;-52
2023/02/21 12:08:29;;;;;;;14.63;10.07;;;13.70;99.90;;;;;;4954065;28;20023;-55
2023/02/21 12:11:26;;;;;;;13.88;10.18;;;13.80;99.90;;;;;;4955120;28;20070;-52
2023/02/21 12:13:58;;;;;;;14.07;10.15;;;13.70;99.90;;;;;;4954302;29;20495;-51
2023/02/21 12:16:51;;;;;;;16.42;11.07;;;13.80;99.90;;;;;;4952946;28;20054;-52
2023/02/21 12:19:32;;;;;;;18.00;11.00;;;13.80;99.90;;;;;;4953657;28;20035;-51
2023/02/21 12:22:15;;;;;;;20.92;11.05;;;13.70;99.90;;;;;;4954371;28;20051;-51
2023/02/21 12:25:21;;;;;;;19.27;11.60;;;13.70;99.90;;;;;;4962884;28;20023;-55
2023/02/21 12:28:04;;;;;;;17.92;10.82;;;13.80;99.90;;;;;;4956521;28;20047;-53
2023/02/21 12:30:36;;;;;;;16.35;10.25;;;13.80;99.90;;;;;;4954425;28;20086;-52
2023/02/21 12:33:33;;;;;;;21.77;11.18;;;13.70;99.90;;;;;;4953914;28;20028;-50
2023/02/21 12:36:13;;;;;;;19.35;10.50;;;13.80;99.90;;;;;;4953680;28;20027;-56
2023/02/21 12:38:53;;;;;;;15.55;10.32;;;13.90;99.90;;;;;;4953873;28;20020;-50
2023/02/21 12:41:19;;;;;;;15.45;11.18;;;13.90;99.90;;;;;;4956532;28;20336;-54
2023/02/21 12:43:52;;;;;;;18.73;11.70;;;14.00;99.90;;;;;;4954589;28;20045;-50
2023/02/21 12:46:27;;;;;;;19.45;11.57;;;14.00;99.90;;;;;;4952889;28;20034;-54
2023/02/21 12:48:58;;;;;;;;;;;14.00;99.90;;;;;;4951897;28;20339;-53
2023/02/21 12:51:36;;;;;;;17.15;10.88;;;14.00;99.90;;;;;;4953753;28;19921;-55
2023/02/21 12:54:07;;;;;;;20.23;12.15;;;14.00;99.90;;;;;;4935666;29;20079;-50
2023/02/21 12:56:56;;;;;;;20.42;11.98;;;14.00;99.90;;;;;;4934997;29;20031;-52
2023/02/21 12:59:47;;;;;;;18.48;13.07;;;14.00;99.90;;;;;;4934587;29;20106;-50
2023/02/21 13:02:39;;;;;;;22.92;12.18;;;14.00;99.90;;;;;;4933292;29;20087;-50
2023/02/21 13:05:47;;;;;;;14.68;9.98;;;14.00;99.90;;;;;;4934062;29;20086;-53
2023/02/21 13:08:23;;;;;;;18.00;10.13;;;14.10;99.90;;;;;;4894036;29;20092;-53
2023/02/21 13:11:13;;;;;;;14.07;9.68;;;14.10;99.90;;;;;;4909657;29;20032;-52
2023/02/21 13:13:39;;;;;;;20.40;10.80;;;14.20;99.90;;;;;;4937072;29;20428;-54
2023/02/21 13:16:11;;;;;;;15.85;10.10;;;14.20;99.90;;;;;;4934126;29;20075;-55
2023/02/21 13:18:58;;;;;;;15.90;10.85;;;14.20;99.90;;;;;;4941153;28;20098;-51
2023/02/21 13:21:48;;;;;;;18.95;9.73;;;14.20;99.90;;;;;;4953006;28;20023;-49
2023/02/21 13:24:22;;;;;;;14.32;10.55;;;14.20;99.90;;;;;;4949505;28;20106;-54
2023/02/21 13:27:22;;;;;;;14.35;10.68;;;14.30;99.90;;;;;;4952321;28;20775;-52
2023/02/21 13:29:49;;;;;;;15.30;10.20;;;14.30;99.90;;;;;;4934107;29;20042;-51
2023/02/21 13:32:20;;;;;;;16.63;9.90;;;14.40;99.90;;;;;;4933889;29;20526;-51
2023/02/21 13:34:59;;;;;;;16.88;9.93;;;14.40;99.90;;;;;;4935928;29;20023;-52
2023/02/21 13:37:31;;;;;;;15.90;10.50;;;14.40;99.90;;;;;;4960535;28;20035;-54
2023/02/21 13:40:06;;;;;;;13.98;10.05;;;14.40;99.90;;;;;;4934016;29;20529;-53
2023/02/21 13:42:35;;;;;;;14.95;9.73;;;14.40;99.90;;;;;;4944996;28;20051;-54
2023/02/21 13:45:22;;;;;;;14.07;10.52;;;14.40;99.90;;;;;;4967568;28;20442;-49
2023/02/21 13:47:58;;;;;;;16.38;10.63;;;14.40;99.90;;;;;;4941146;28;20058;-51
2023/02/21 13:50:33;;;;;;;14.90;10.45;;;14.50;99.90;;;;;;4939684;29;20027;-48
2023/02/21 13:53:08;;;;;;;14.60;10.45;;;14.50;99.90;;;;;;4952975;28;20110;-54
2023/02/21 13:55:38;;;;;;;16.40;10.70;;;14.50;99.90;;;;;;4952735;28;20031;-51
2023/02/21 13:58:06;;;;;;;17.55;10.95;;;14.50;99.90;;;;;;4952909;28;20278;-53
2023/02/21 14:00:31;;;;;;;18.42;10.63;;;14.50;99.90;;;;;;4956182;28;20023;-50
2023/02/21 14:03:06;;;;;;;15.02;10.38;;;14.60;99.90;;;;;;4955533;28;20023;-49
2023/02/21 14:05:46;;;;;;;16.15;10.57;;;14.60;99.90;;;;;;4956442;28;20127;-51
2023/02/21 14:08:32;;;;;;;18.90;10.50;;;14.60;99.90;;;;;;4956496;28;20054;-49
2023/02/21 14:11:11;;;;;;;12.18;9.15;;;14.60;99.90;;;;;;4949516;28;20047;-54
2023/02/21 14:13:42;;;;;;;15.77;11.43;;;14.60;99.90;;;;;;4956573;28;20110;-51
2023/02/21 14:16:31;;;;;;;18.70;10.48;;;14.50;99.90;;;;;;4956806;28;20028;-50
2023/02/21 14:19:00;;;;;;;19.65;12.43;;;14.50;99.90;;;;;;4956297;28;20027;-50
2023/02/21 14:21:44;;;;;;;17.65;9.93;;;14.50;99.90;;;;;;4956126;28;20019;-49
2023/02/21 14:24:09;;;;;;;12.63;7.85;;;14.50;99.90;;;;;;4956259;28;20030;-50
2023/02/21 14:26:56;;;;;;;14.40;8.18;;;14.60;99.90;;;;;;4954797;28;20483;-49
2023/02/21 14:29:43;;;;;;;12.13;8.10;;;14.60;99.90;;;;;;4956134;28;20031;-51
2023/02/21 14:32:08;;;;;;;12.50;7.88;;;14.60;99.90;;;;;;4955995;28;20369;-50
2023/02/21 14:34:48;;;;;;;14.07;8.50;;;14.60;99.90;;;;;;4955892;28;20051;-52
2023/02/21 14:37:29;;;;;;;10.57;7.13;;;14.60;99.90;;;;;;4955915;28;20034;-51
2023/02/21 14:40:00;;;;;;;12.02;7.80;;;14.60;99.90;;;;;;4955894;28;20105;-50
2023/02/21 14:42:43;;;;;;;11.40;8.13;;;14.60;99.90;;;;;;4955842;28;20031;-52
2023/02/21 14:45:08;;;;;;;21.55;13.05;;;14.70;99.90;;;;;;4955682;28;20031;-52
2023/02/21 14:48:02;;;;;;;11.55;7.28;;;14.70;99.90;;;;;;4955656;28;20117;-49
2023/02/21 14:50:54;;;;;;;13.30;8.88;;;14.70;99.90;;;;;;4955849;28;20070;-51
2023/02/21 14:53:46;;;;;;;15.73;8.25;;;14.70;99.90;;;;;;4955583;28;20023;-49
2023/02/21 14:56:18;;;;;;;24.80;10.00;;;14.70;99.90;;;;;;4955101;28;20055;-50
2023/02/21 14:59:12;;;;;;;9.82;7.40;;;14.70;99.90;;;;;;4955738;28;20037;-47
2023/02/21 15:01:53;;;;;;;12.57;8.55;;;14.60;99.90;;;;;;4955551;28;20057;-47
2023/02/21 15:04:28;;;;;;;12.73;8.88;;;14.60;99.90;;;;;;4955611;28;20031;-50
2023/02/21 15:07:30;;;;;;;16.70;9.00;;;14.70;99.90;;;;;;4955458;28;20070;-47
2023/02/21 15:10:20;;;;;;;14.35;10.68;;;14.70;99.90;;;;;;4955416;28;20034;-48
2023/02/21 15:12:52;;;;;;;12.55;8.52;;;14.70;99.90;;;;;;4955365;28;20031;-49
2023/02/21 15:15:26;;;;;;;14.77;10.40;;;14.70;99.90;;;;;;4955541;28;20610;-49
2023/02/21 15:18:05;;;;;;;14.85;9.85;;;14.70;99.90;;;;;;4955079;28;20516;-50
2023/02/21 15:20:33;;;;;;;19.33;10.70;;;14.80;99.90;;;;;;4955323;28;20019;-49